LKTB/BRQ METAR and TAF weather

Enter ICAO airport designator
Station Type Date Time Source
LKTB METAR 2019/06/27 08:30 UTC NOAA

LKTB 270830Z 31010KT CAVOK 29/18 Q1019 NOSIG


Station Type Date Time Source
LKTB Decoded METAR 2019/06/27 08:30 UTC NOAA

Brno / Turany, Czech Republic (LKTB) 49-09N 016-42E 246M
Jun 27, 2019 - 04:30 AM EDT / 2019.06.27 0830 UTC
Wind: from the NW (310 degrees) at 12 MPH (10 KT):0
Visibility: greater than 7 mile(s):0
Temperature: 84 F (29 C)
Dew Point: 64 F (18 C)
Relative Humidity: 51%
Pressure (altimeter): 30.09 in. Hg (1019 hPa)
ob: LKTB 270830Z 31010KT CAVOK 29/18 Q1019 NOSIG
cycle: 8

Station Type Date Time Source
LKTB TAF 2019/06/27 06:37 UTC NOAA

TAF LKTB 270500Z 2706/2812 33006KT CAVOK
TEMPO 2710/2718 35012G24KT

Example: see airport list